sensor_id;sensor_type;location;lat;lon;timestamp;P1;durP1;ratioP1;P2;durP2;ratioP2
8281;SDS011;25606;42.686;23.136;2022-11-25T00:01:30;4.57;;;2.20;;
8281;SDS011;25606;42.686;23.136;2022-11-25T00:03:58;3.07;;;2.73;;
8281;SDS011;25606;42.686;23.136;2022-11-25T00:06:26;2.17;;;1.97;;
8281;SDS011;25606;42.686;23.136;2022-11-25T00:08:54;2.40;;;2.20;;
8281;SDS011;25606;42.686;23.136;2022-11-25T00:11:22;3.27;;;2.27;;
8281;SDS011;25606;42.686;23.136;2022-11-25T00:13:49;2.40;;;2.20;;
8281;SDS011;25606;42.686;23.136;2022-11-25T00:16:18;3.20;;;2.20;;
8281;SDS011;25606;42.686;23.136;2022-11-25T00:18:46;3.27;;;1.90;;
8281;SDS011;25606;42.686;23.136;2022-11-25T00:21:14;5.03;;;2.30;;
8281;SDS011;25606;42.686;23.136;2022-11-25T00:23:42;2.60;;;2.10;;
8281;SDS011;25606;42.686;23.136;2022-11-25T00:26:10;3.27;;;2.37;;
8281;SDS011;25606;42.686;23.136;2022-11-25T00:28:38;2.30;;;2.10;;
8281;SDS011;25606;42.686;23.136;2022-11-25T00:31:06;2.80;;;2.50;;
8281;SDS011;25606;42.686;23.136;2022-11-25T00:33:34;3.37;;;2.37;;
8281;SDS011;25606;42.686;23.136;2022-11-25T00:36:02;2.60;;;2.33;;
8281;SDS011;25606;42.686;23.136;2022-11-25T00:38:30;3.00;;;2.37;;
8281;SDS011;25606;42.686;23.136;2022-11-25T00:40:57;2.80;;;2.23;;
8281;SDS011;25606;42.686;23.136;2022-11-25T00:43:41;2.23;;;2.03;;
8281;SDS011;25606;42.686;23.136;2022-11-25T00:46:26;2.70;;;2.50;;
8281;SDS011;25606;42.686;23.136;2022-11-25T00:48:55;2.30;;;2.10;;
8281;SDS011;25606;42.686;23.136;2022-11-25T00:51:22;2.27;;;2.07;;
8281;SDS011;25606;42.686;23.136;2022-11-25T00:53:49;3.60;;;2.40;;
8281;SDS011;25606;42.686;23.136;2022-11-25T00:56:17;2.67;;;2.10;;
8281;SDS011;25606;42.686;23.136;2022-11-25T00:58:44;2.53;;;2.33;;
8281;SDS011;25606;42.686;23.136;2022-11-25T01:01:11;4.10;;;2.30;;
8281;SDS011;25606;42.686;23.136;2022-11-25T01:03:39;2.10;;;1.90;;
8281;SDS011;25606;42.686;23.136;2022-11-25T01:06:08;2.50;;;2.00;;
8281;SDS011;25606;42.686;23.136;2022-11-25T01:08:37;2.30;;;2.10;;
8281;SDS011;25606;42.686;23.136;2022-11-25T01:11:05;2.77;;;2.40;;
8281;SDS011;25606;42.686;23.136;2022-11-25T01:13:32;2.70;;;2.37;;
8281;SDS011;25606;42.686;23.136;2022-11-25T01:16:00;3.20;;;2.10;;
8281;SDS011;25606;42.686;23.136;2022-11-25T01:18:27;3.57;;;2.50;;
8281;SDS011;25606;42.686;23.136;2022-11-25T01:20:55;2.27;;;2.07;;
8281;SDS011;25606;42.686;23.136;2022-11-25T01:23:23;3.37;;;2.20;;
8281;SDS011;25606;42.686;23.136;2022-11-25T01:25:51;3.97;;;2.07;;
8281;SDS011;25606;42.686;23.136;2022-11-25T01:28:18;2.30;;;2.10;;
8281;SDS011;25606;42.686;23.136;2022-11-25T01:30:45;2.30;;;2.10;;
8281;SDS011;25606;42.686;23.136;2022-11-25T01:33:12;2.30;;;2.10;;
8281;SDS011;25606;42.686;23.136;2022-11-25T01:35:40;2.70;;;2.20;;
8281;SDS011;25606;42.686;23.136;2022-11-25T01:38:07;2.10;;;1.90;;
8281;SDS011;25606;42.686;23.136;2022-11-25T01:40:36;2.10;;;1.90;;
8281;SDS011;25606;42.686;23.136;2022-11-25T01:43:03;2.40;;;1.83;;
8281;SDS011;25606;42.686;23.136;2022-11-25T01:45:34;2.07;;;1.87;;
8281;SDS011;25606;42.686;23.136;2022-11-25T01:48:03;2.10;;;1.83;;
8281;SDS011;25606;42.686;23.136;2022-11-25T01:50:31;2.00;;;1.90;;
8281;SDS011;25606;42.686;23.136;2022-11-25T01:52:59;1.90;;;1.80;;
8281;SDS011;25606;42.686;23.136;2022-11-25T01:55:27;2.03;;;1.83;;
8281;SDS011;25606;42.686;23.136;2022-11-25T01:57:58;2.90;;;2.00;;
8281;SDS011;25606;42.686;23.136;2022-11-25T02:00:27;2.07;;;1.83;;
8281;SDS011;25606;42.686;23.136;2022-11-25T02:02:54;2.10;;;1.90;;
8281;SDS011;25606;42.686;23.136;2022-11-25T02:05:23;2.50;;;1.83;;
8281;SDS011;25606;42.686;23.136;2022-11-25T02:07:52;1.93;;;1.80;;
8281;SDS011;25606;42.686;23.136;2022-11-25T02:10:20;2.17;;;1.97;;
8281;SDS011;25606;42.686;23.136;2022-11-25T02:12:49;1.70;;;1.60;;
8281;SDS011;25606;42.686;23.136;2022-11-25T02:15:18;1.67;;;1.57;;
8281;SDS011;25606;42.686;23.136;2022-11-25T02:17:46;2.10;;;1.90;;
8281;SDS011;25606;42.686;23.136;2022-11-25T02:20:14;2.37;;;2.10;;
8281;SDS011;25606;42.686;23.136;2022-11-25T02:22:51;1.60;;;1.50;;
8281;SDS011;25606;42.686;23.136;2022-11-25T02:25:21;2.60;;;2.30;;
8281;SDS011;25606;42.686;23.136;2022-11-25T02:27:50;2.53;;;1.97;;
8281;SDS011;25606;42.686;23.136;2022-11-25T02:30:18;2.97;;;1.90;;
8281;SDS011;25606;42.686;23.136;2022-11-25T02:32:46;2.90;;;2.40;;
8281;SDS011;25606;42.686;23.136;2022-11-25T02:35:20;2.10;;;1.90;;
8281;SDS011;25606;42.686;23.136;2022-11-25T02:37:49;2.30;;;2.10;;
8281;SDS011;25606;42.686;23.136;2022-11-25T02:40:16;2.13;;;1.97;;
8281;SDS011;25606;42.686;23.136;2022-11-25T02:42:45;2.87;;;1.90;;
8281;SDS011;25606;42.686;23.136;2022-11-25T02:45:13;2.20;;;2.00;;
8281;SDS011;25606;42.686;23.136;2022-11-25T02:47:42;1.97;;;1.83;;
8281;SDS011;25606;42.686;23.136;2022-11-25T02:50:10;2.17;;;1.97;;
8281;SDS011;25606;42.686;23.136;2022-11-25T02:52:38;2.30;;;2.10;;
8281;SDS011;25606;42.686;23.136;2022-11-25T02:55:05;2.73;;;2.53;;
8281;SDS011;25606;42.686;23.136;2022-11-25T02:57:33;5.13;;;2.63;;
8281;SDS011;25606;42.686;23.136;2022-11-25T03:00:02;4.97;;;2.47;;
8281;SDS011;25606;42.686;23.136;2022-11-25T03:02:30;2.87;;;2.30;;
8281;SDS011;25606;42.686;23.136;2022-11-25T03:04:58;2.63;;;2.43;;
8281;SDS011;25606;42.686;23.136;2022-11-25T03:07:25;2.27;;;2.07;;
8281;SDS011;25606;42.686;23.136;2022-11-25T03:09:52;2.70;;;2.50;;
8281;SDS011;25606;42.686;23.136;2022-11-25T03:12:19;2.70;;;2.50;;
8281;SDS011;25606;42.686;23.136;2022-11-25T03:14:47;4.10;;;2.63;;
8281;SDS011;25606;42.686;23.136;2022-11-25T03:17:15;2.53;;;2.20;;
8281;SDS011;25606;42.686;23.136;2022-11-25T03:19:43;2.37;;;2.17;;
8281;SDS011;25606;42.686;23.136;2022-11-25T03:22:10;2.50;;;2.30;;
8281;SDS011;25606;42.686;23.136;2022-11-25T03:24:37;2.60;;;2.20;;
8281;SDS011;25606;42.686;23.136;2022-11-25T03:27:04;2.43;;;2.23;;
8281;SDS011;25606;42.686;23.136;2022-11-25T03:29:32;2.20;;;2.00;;
8281;SDS011;25606;42.686;23.136;2022-11-25T03:31:59;2.93;;;2.30;;
8281;SDS011;25606;42.686;23.136;2022-11-25T03:34:28;2.30;;;2.10;;
8281;SDS011;25606;42.686;23.136;2022-11-25T03:36:55;2.30;;;2.10;;
8281;SDS011;25606;42.686;23.136;2022-11-25T03:39:22;2.10;;;1.90;;
8281;SDS011;25606;42.686;23.136;2022-11-25T03:41:50;1.70;;;1.60;;
8281;SDS011;25606;42.686;23.136;2022-11-25T03:44:17;2.10;;;1.87;;
8281;SDS011;25606;42.686;23.136;2022-11-25T03:46:44;1.70;;;1.60;;
8281;SDS011;25606;42.686;23.136;2022-11-25T03:49:12;1.67;;;1.57;;
8281;SDS011;25606;42.686;23.136;2022-11-25T03:51:40;1.83;;;1.73;;
8281;SDS011;25606;42.686;23.136;2022-11-25T03:54:08;1.60;;;1.50;;
8281;SDS011;25606;42.686;23.136;2022-11-25T03:56:35;1.87;;;1.70;;
8281;SDS011;25606;42.686;23.136;2022-11-25T03:59:02;2.17;;;1.83;;
8281;SDS011;25606;42.686;23.136;2022-11-25T04:01:30;1.50;;;1.30;;
8281;SDS011;25606;42.686;23.136;2022-11-25T04:03:57;1.83;;;1.73;;
8281;SDS011;25606;42.686;23.136;2022-11-25T04:06:24;2.20;;;2.00;;
8281;SDS011;25606;42.686;23.136;2022-11-25T04:08:53;2.43;;;2.00;;
8281;SDS011;25606;42.686;23.136;2022-11-25T04:11:20;2.10;;;1.90;;
8281;SDS011;25606;42.686;23.136;2022-11-25T04:14:07;2.10;;;2.00;;
8281;SDS011;25606;42.686;23.136;2022-11-25T04:16:34;2.00;;;1.77;;
8281;SDS011;25606;42.686;23.136;2022-11-25T04:19:01;1.80;;;1.70;;
8281;SDS011;25606;42.686;23.136;2022-11-25T04:21:29;2.00;;;1.90;;
8281;SDS011;25606;42.686;23.136;2022-11-25T04:23:58;2.20;;;2.00;;
8281;SDS011;25606;42.686;23.136;2022-11-25T04:26:25;1.70;;;1.60;;
8281;SDS011;25606;42.686;23.136;2022-11-25T04:28:52;2.47;;;2.00;;
8281;SDS011;25606;42.686;23.136;2022-11-25T04:31:20;1.83;;;1.73;;
8281;SDS011;25606;42.686;23.136;2022-11-25T04:33:47;1.80;;;1.70;;
8281;SDS011;25606;42.686;23.136;2022-11-25T04:36:15;2.00;;;1.90;;
8281;SDS011;25606;42.686;23.136;2022-11-25T04:38:42;2.17;;;1.97;;
8281;SDS011;25606;42.686;23.136;2022-11-25T04:41:11;2.43;;;1.90;;
8281;SDS011;25606;42.686;23.136;2022-11-25T04:43:38;1.90;;;1.70;;
8281;SDS011;25606;42.686;23.136;2022-11-25T04:46:06;1.80;;;1.70;;
8281;SDS011;25606;42.686;23.136;2022-11-25T04:48:33;2.57;;;1.93;;
8281;SDS011;25606;42.686;23.136;2022-11-25T04:51:00;1.80;;;1.70;;
8281;SDS011;25606;42.686;23.136;2022-11-25T04:53:27;2.00;;;1.80;;
8281;SDS011;25606;42.686;23.136;2022-11-25T04:55:55;1.80;;;1.70;;
8281;SDS011;25606;42.686;23.136;2022-11-25T04:58:24;1.70;;;1.60;;
8281;SDS011;25606;42.686;23.136;2022-11-25T05:01:09;1.70;;;1.60;;
8281;SDS011;25606;42.686;23.136;2022-11-25T05:03:36;1.50;;;1.40;;
8281;SDS011;25606;42.686;23.136;2022-11-25T05:06:04;1.73;;;1.63;;
8281;SDS011;25606;42.686;23.136;2022-11-25T05:08:32;1.70;;;1.60;;
8281;SDS011;25606;42.686;23.136;2022-11-25T05:10:59;1.90;;;1.80;;
8281;SDS011;25606;42.686;23.136;2022-11-25T05:13:28;1.37;;;1.27;;
8281;SDS011;25606;42.686;23.136;2022-11-25T05:15:57;1.60;;;1.50;;
8281;SDS011;25606;42.686;23.136;2022-11-25T05:18:25;1.67;;;1.57;;
8281;SDS011;25606;42.686;23.136;2022-11-25T05:20:52;1.70;;;1.60;;
8281;SDS011;25606;42.686;23.136;2022-11-25T05:23:19;1.50;;;1.40;;
8281;SDS011;25606;42.686;23.136;2022-11-25T05:25:46;1.70;;;1.60;;
8281;SDS011;25606;42.686;23.136;2022-11-25T05:28:14;1.70;;;1.60;;
8281;SDS011;25606;42.686;23.136;2022-11-25T05:30:42;1.80;;;1.70;;
8281;SDS011;25606;42.686;23.136;2022-11-25T05:33:10;1.50;;;1.40;;
8281;SDS011;25606;42.686;23.136;2022-11-25T05:35:37;1.77;;;1.67;;
8281;SDS011;25606;42.686;23.136;2022-11-25T05:38:04;1.80;;;1.70;;
8281;SDS011;25606;42.686;23.136;2022-11-25T05:40:32;1.70;;;1.60;;
8281;SDS011;25606;42.686;23.136;2022-11-25T05:42:59;1.87;;;1.60;;
8281;SDS011;25606;42.686;23.136;2022-11-25T05:45:27;1.60;;;1.50;;
8281;SDS011;25606;42.686;23.136;2022-11-25T05:47:55;1.87;;;1.77;;
8281;SDS011;25606;42.686;23.136;2022-11-25T05:50:23;1.60;;;1.50;;
8281;SDS011;25606;42.686;23.136;2022-11-25T05:52:50;1.87;;;1.70;;
8281;SDS011;25606;42.686;23.136;2022-11-25T05:55:17;2.20;;;2.00;;
8281;SDS011;25606;42.686;23.136;2022-11-25T05:57:44;1.97;;;1.77;;
8281;SDS011;25606;42.686;23.136;2022-11-25T06:00:12;1.97;;;1.87;;
8281;SDS011;25606;42.686;23.136;2022-11-25T06:02:39;1.80;;;1.70;;
8281;SDS011;25606;42.686;23.136;2022-11-25T06:05:08;1.80;;;1.70;;
8281;SDS011;25606;42.686;23.136;2022-11-25T06:07:36;2.07;;;1.87;;
8281;SDS011;25606;42.686;23.136;2022-11-25T06:10:04;1.90;;;1.80;;
8281;SDS011;25606;42.686;23.136;2022-11-25T06:12:31;2.10;;;1.90;;
8281;SDS011;25606;42.686;23.136;2022-11-25T06:14:58;2.00;;;1.80;;
8281;SDS011;25606;42.686;23.136;2022-11-25T06:17:26;2.40;;;2.20;;
8281;SDS011;25606;42.686;23.136;2022-11-25T06:19:53;1.97;;;1.83;;
8281;SDS011;25606;42.686;23.136;2022-11-25T06:22:22;2.00;;;1.77;;
8281;SDS011;25606;42.686;23.136;2022-11-25T06:24:49;1.90;;;1.80;;
8281;SDS011;25606;42.686;23.136;2022-11-25T06:27:16;3.73;;;2.07;;
8281;SDS011;25606;42.686;23.136;2022-11-25T06:29:44;1.90;;;1.80;;
8281;SDS011;25606;42.686;23.136;2022-11-25T06:32:11;2.00;;;1.90;;
8281;SDS011;25606;42.686;23.136;2022-11-25T06:34:38;1.83;;;1.73;;
8281;SDS011;25606;42.686;23.136;2022-11-25T06:37:06;1.77;;;1.67;;
8281;SDS011;25606;42.686;23.136;2022-11-25T06:39:35;2.13;;;2.00;;
8281;SDS011;25606;42.686;23.136;2022-11-25T06:42:03;2.10;;;1.90;;
8281;SDS011;25606;42.686;23.136;2022-11-25T06:44:30;2.40;;;2.20;;
8281;SDS011;25606;42.686;23.136;2022-11-25T06:46:57;2.10;;;2.00;;
8281;SDS011;25606;42.686;23.136;2022-11-25T06:49:24;2.63;;;2.40;;
8281;SDS011;25606;42.686;23.136;2022-11-25T06:51:53;3.27;;;2.03;;
8281;SDS011;25606;42.686;23.136;2022-11-25T06:54:20;3.37;;;2.23;;
8281;SDS011;25606;42.686;23.136;2022-11-25T06:56:49;2.50;;;2.30;;
8281;SDS011;25606;42.686;23.136;2022-11-25T06:59:18;2.97;;;2.10;;
8281;SDS011;25606;42.686;23.136;2022-11-25T07:01:45;3.17;;;2.10;;
8281;SDS011;25606;42.686;23.136;2022-11-25T07:04:12;3.37;;;2.10;;
8281;SDS011;25606;42.686;23.136;2022-11-25T07:06:40;2.83;;;2.00;;
8281;SDS011;25606;42.686;23.136;2022-11-25T07:09:07;2.80;;;2.30;;
8281;SDS011;25606;42.686;23.136;2022-11-25T07:11:35;2.23;;;2.03;;
8281;SDS011;25606;42.686;23.136;2022-11-25T07:14:04;2.40;;;2.20;;
8281;SDS011;25606;42.686;23.136;2022-11-25T07:16:32;2.70;;;2.50;;
8281;SDS011;25606;42.686;23.136;2022-11-25T07:19:00;2.53;;;2.33;;
8281;SDS011;25606;42.686;23.136;2022-11-25T07:21:28;2.47;;;2.27;;
8281;SDS011;25606;42.686;23.136;2022-11-25T07:23:57;2.00;;;1.90;;
8281;SDS011;25606;42.686;23.136;2022-11-25T07:26:25;2.43;;;2.23;;
8281;SDS011;25606;42.686;23.136;2022-11-25T07:28:53;2.50;;;2.30;;
8281;SDS011;25606;42.686;23.136;2022-11-25T07:31:23;3.33;;;2.40;;
8281;SDS011;25606;42.686;23.136;2022-11-25T07:33:50;2.63;;;2.43;;
8281;SDS011;25606;42.686;23.136;2022-11-25T07:36:18;3.00;;;2.10;;
8281;SDS011;25606;42.686;23.136;2022-11-25T07:38:45;2.23;;;2.07;;
8281;SDS011;25606;42.686;23.136;2022-11-25T07:41:13;2.27;;;2.07;;
8281;SDS011;25606;42.686;23.136;2022-11-25T07:43:43;2.70;;;2.50;;
8281;SDS011;25606;42.686;23.136;2022-11-25T07:46:11;2.60;;;2.40;;
8281;SDS011;25606;42.686;23.136;2022-11-25T07:48:40;2.80;;;2.60;;
8281;SDS011;25606;42.686;23.136;2022-11-25T07:51:12;2.83;;;2.63;;
8281;SDS011;25606;42.686;23.136;2022-11-25T07:53:39;2.70;;;2.50;;
8281;SDS011;25606;42.686;23.136;2022-11-25T07:56:07;2.67;;;2.47;;
8281;SDS011;25606;42.686;23.136;2022-11-25T07:58:34;3.20;;;2.30;;
8281;SDS011;25606;42.686;23.136;2022-11-25T08:01:01;3.87;;;3.10;;
8281;SDS011;25606;42.686;23.136;2022-11-25T08:03:30;2.63;;;2.43;;
8281;SDS011;25606;42.686;23.136;2022-11-25T08:06:00;2.50;;;2.30;;
8281;SDS011;25606;42.686;23.136;2022-11-25T08:08:27;2.63;;;2.27;;
8281;SDS011;25606;42.686;23.136;2022-11-25T08:10:54;3.07;;;2.73;;
8281;SDS011;25606;42.686;23.136;2022-11-25T08:13:22;2.30;;;2.10;;
8281;SDS011;25606;42.686;23.136;2022-11-25T08:15:49;2.90;;;2.70;;
8281;SDS011;25606;42.686;23.136;2022-11-25T08:18:16;2.73;;;2.43;;
8281;SDS011;25606;42.686;23.136;2022-11-25T08:20:44;10.00;;;7.10;;
8281;SDS011;25606;42.686;23.136;2022-11-25T08:23:12;3.70;;;2.20;;
8281;SDS011;25606;42.686;23.136;2022-11-25T08:25:40;3.40;;;2.70;;
8281;SDS011;25606;42.686;23.136;2022-11-25T08:28:07;2.40;;;2.10;;
8281;SDS011;25606;42.686;23.136;2022-11-25T08:30:34;3.00;;;2.73;;
8281;SDS011;25606;42.686;23.136;2022-11-25T08:33:02;2.87;;;2.50;;
8281;SDS011;25606;42.686;23.136;2022-11-25T08:35:31;2.90;;;2.60;;
8281;SDS011;25606;42.686;23.136;2022-11-25T08:38:02;3.63;;;2.80;;
8281;SDS011;25606;42.686;23.136;2022-11-25T08:40:31;2.53;;;2.33;;
8281;SDS011;25606;42.686;23.136;2022-11-25T08:42:58;3.87;;;2.73;;
8281;SDS011;25606;42.686;23.136;2022-11-25T08:45:25;2.43;;;2.23;;
8281;SDS011;25606;42.686;23.136;2022-11-25T08:47:53;3.07;;;2.60;;
8281;SDS011;25606;42.686;23.136;2022-11-25T08:50:20;4.03;;;3.10;;
8281;SDS011;25606;42.686;23.136;2022-11-25T08:52:52;2.60;;;2.40;;
8281;SDS011;25606;42.686;23.136;2022-11-25T08:55:22;2.53;;;2.33;;
8281;SDS011;25606;42.686;23.136;2022-11-25T08:57:53;3.43;;;2.27;;
8281;SDS011;25606;42.686;23.136;2022-11-25T09:00:21;2.40;;;2.20;;
8281;SDS011;25606;42.686;23.136;2022-11-25T09:02:49;2.67;;;2.47;;
8281;SDS011;25606;42.686;23.136;2022-11-25T09:05:18;2.70;;;2.50;;
8281;SDS011;25606;42.686;23.136;2022-11-25T09:07:45;2.83;;;2.53;;
8281;SDS011;25606;42.686;23.136;2022-11-25T09:10:16;3.03;;;2.50;;
8281;SDS011;25606;42.686;23.136;2022-11-25T09:12:43;2.80;;;2.43;;
8281;SDS011;25606;42.686;23.136;2022-11-25T09:15:15;3.83;;;2.40;;
8281;SDS011;25606;42.686;23.136;2022-11-25T09:17:43;2.30;;;2.10;;
8281;SDS011;25606;42.686;23.136;2022-11-25T09:20:13;3.10;;;2.80;;
8281;SDS011;25606;42.686;23.136;2022-11-25T09:22:43;4.83;;;3.13;;
8281;SDS011;25606;42.686;23.136;2022-11-25T09:25:11;2.60;;;2.10;;
8281;SDS011;25606;42.686;23.136;2022-11-25T09:27:39;2.80;;;2.47;;
8281;SDS011;25606;42.686;23.136;2022-11-25T09:30:09;2.63;;;2.43;;
8281;SDS011;25606;42.686;23.136;2022-11-25T09:32:46;2.50;;;2.30;;
8281;SDS011;25606;42.686;23.136;2022-11-25T09:35:16;2.50;;;2.30;;
8281;SDS011;25606;42.686;23.136;2022-11-25T09:37:44;2.50;;;2.20;;
8281;SDS011;25606;42.686;23.136;2022-11-25T09:40:16;2.17;;;2.00;;
8281;SDS011;25606;42.686;23.136;2022-11-25T09:42:46;2.20;;;2.00;;
8281;SDS011;25606;42.686;23.136;2022-11-25T09:45:35;2.90;;;2.20;;
8281;SDS011;25606;42.686;23.136;2022-11-25T09:48:29;3.27;;;2.07;;
8281;SDS011;25606;42.686;23.136;2022-11-25T09:51:01;4.73;;;2.23;;
8281;SDS011;25606;42.686;23.136;2022-11-25T09:53:41;3.97;;;2.37;;
8281;SDS011;25606;42.686;23.136;2022-11-25T09:56:10;3.03;;;2.00;;
8281;SDS011;25606;42.686;23.136;2022-11-25T09:58:43;2.30;;;2.10;;
8281;SDS011;25606;42.686;23.136;2022-11-25T10:01:13;2.07;;;1.87;;
8281;SDS011;25606;42.686;23.136;2022-11-25T10:03:44;1.93;;;1.83;;
8281;SDS011;25606;42.686;23.136;2022-11-25T10:06:13;2.10;;;1.90;;
8281;SDS011;25606;42.686;23.136;2022-11-25T10:08:42;1.93;;;1.70;;
8281;SDS011;25606;42.686;23.136;2022-11-25T10:11:24;3.13;;;1.70;;
8281;SDS011;25606;42.686;23.136;2022-11-25T10:13:56;1.90;;;1.70;;
8281;SDS011;25606;42.686;23.136;2022-11-25T10:16:32;2.13;;;1.70;;
8281;SDS011;25606;42.686;23.136;2022-11-25T10:19:04;1.60;;;1.50;;
8281;SDS011;25606;42.686;23.136;2022-11-25T10:21:33;3.00;;;1.70;;
8281;SDS011;25606;42.686;23.136;2022-11-25T10:24:01;2.57;;;1.70;;
8281;SDS011;25606;42.686;23.136;2022-11-25T10:26:30;2.00;;;1.80;;
8281;SDS011;25606;42.686;23.136;2022-11-25T10:29:05;3.13;;;1.80;;
8281;SDS011;25606;42.686;23.136;2022-11-25T10:31:37;3.00;;;2.23;;
8281;SDS011;25606;42.686;23.136;2022-11-25T10:34:10;1.93;;;1.63;;
8281;SDS011;25606;42.686;23.136;2022-11-25T10:36:38;1.97;;;1.70;;
8281;SDS011;25606;42.686;23.136;2022-11-25T10:39:09;2.20;;;1.50;;
8281;SDS011;25606;42.686;23.136;2022-11-25T10:41:42;2.43;;;1.80;;
8281;SDS011;25606;42.686;23.136;2022-11-25T10:44:11;1.37;;;1.27;;
8281;SDS011;25606;42.686;23.136;2022-11-25T10:46:42;1.53;;;1.43;;
8281;SDS011;25606;42.686;23.136;2022-11-25T10:49:12;2.50;;;1.67;;
8281;SDS011;25606;42.686;23.136;2022-11-25T10:51:42;1.93;;;1.70;;
8281;SDS011;25606;42.686;23.136;2022-11-25T10:54:11;1.80;;;1.67;;
8281;SDS011;25606;42.686;23.136;2022-11-25T10:56:43;2.07;;;1.87;;
8281;SDS011;25606;42.686;23.136;2022-11-25T10:59:20;2.40;;;1.77;;
8281;SDS011;25606;42.686;23.136;2022-11-25T11:01:48;2.40;;;2.20;;
8281;SDS011;25606;42.686;23.136;2022-11-25T11:04:17;2.30;;;2.10;;
8281;SDS011;25606;42.686;23.136;2022-11-25T11:06:45;2.20;;;1.80;;
8281;SDS011;25606;42.686;23.136;2022-11-25T11:09:29;2.43;;;2.03;;
8281;SDS011;25606;42.686;23.136;2022-11-25T11:11:57;2.97;;;2.60;;
8281;SDS011;25606;42.686;23.136;2022-11-25T11:14:33;2.40;;;2.20;;
8281;SDS011;25606;42.686;23.136;2022-11-25T11:17:00;3.23;;;2.13;;
8281;SDS011;25606;42.686;23.136;2022-11-25T11:19:28;2.47;;;2.27;;
8281;SDS011;25606;42.686;23.136;2022-11-25T11:21:56;2.50;;;1.80;;
8281;SDS011;25606;42.686;23.136;2022-11-25T11:24:39;2.33;;;2.13;;
8281;SDS011;25606;42.686;23.136;2022-11-25T11:27:15;2.47;;;2.20;;
8281;SDS011;25606;42.686;23.136;2022-11-25T11:29:45;2.70;;;2.20;;
8281;SDS011;25606;42.686;23.136;2022-11-25T11:32:18;3.63;;;2.33;;
8281;SDS011;25606;42.686;23.136;2022-11-25T11:34:52;2.60;;;2.30;;
8281;SDS011;25606;42.686;23.136;2022-11-25T11:37:27;3.13;;;2.70;;
8281;SDS011;25606;42.686;23.136;2022-11-25T11:40:02;2.70;;;2.50;;
8281;SDS011;25606;42.686;23.136;2022-11-25T11:42:37;3.03;;;2.20;;
8281;SDS011;25606;42.686;23.136;2022-11-25T11:45:11;3.07;;;2.30;;
8281;SDS011;25606;42.686;23.136;2022-11-25T11:47:48;2.70;;;2.50;;
8281;SDS011;25606;42.686;23.136;2022-11-25T11:50:25;2.80;;;2.60;;
8281;SDS011;25606;42.686;23.136;2022-11-25T11:52:56;3.40;;;2.90;;
8281;SDS011;25606;42.686;23.136;2022-11-25T11:55:28;3.13;;;2.83;;
8281;SDS011;25606;42.686;23.136;2022-11-25T11:58:00;4.00;;;2.73;;
8281;SDS011;25606;42.686;23.136;2022-11-25T12:00:31;3.23;;;2.70;;
8281;SDS011;25606;42.686;23.136;2022-11-25T12:03:03;2.83;;;2.57;;
8281;SDS011;25606;42.686;23.136;2022-11-25T12:05:38;3.17;;;2.10;;
8281;SDS011;25606;42.686;23.136;2022-11-25T12:08:08;3.37;;;2.83;;
8281;SDS011;25606;42.686;23.136;2022-11-25T12:10:37;3.00;;;2.70;;
8281;SDS011;25606;42.686;23.136;2022-11-25T12:13:11;3.77;;;2.77;;
8281;SDS011;25606;42.686;23.136;2022-11-25T12:15:40;4.00;;;2.40;;
8281;SDS011;25606;42.686;23.136;2022-11-25T12:18:11;4.33;;;2.83;;
8281;SDS011;25606;42.686;23.136;2022-11-25T12:20:44;2.83;;;2.57;;
8281;SDS011;25606;42.686;23.136;2022-11-25T12:23:15;4.27;;;2.70;;
8281;SDS011;25606;42.686;23.136;2022-11-25T12:25:44;3.77;;;2.70;;
8281;SDS011;25606;42.686;23.136;2022-11-25T12:28:16;2.83;;;2.60;;
8281;SDS011;25606;42.686;23.136;2022-11-25T12:30:50;2.97;;;2.77;;
8281;SDS011;25606;42.686;23.136;2022-11-25T12:33:25;4.60;;;2.73;;
8281;SDS011;25606;42.686;23.136;2022-11-25T12:35:56;3.40;;;2.87;;
8281;SDS011;25606;42.686;23.136;2022-11-25T12:38:29;3.00;;;2.80;;
8281;SDS011;25606;42.686;23.136;2022-11-25T12:41:01;2.83;;;2.63;;
8281;SDS011;25606;42.686;23.136;2022-11-25T12:43:32;4.97;;;2.77;;
8281;SDS011;25606;42.686;23.136;2022-11-25T12:46:06;3.57;;;2.77;;
8281;SDS011;25606;42.686;23.136;2022-11-25T12:48:37;2.70;;;2.50;;
8281;SDS011;25606;42.686;23.136;2022-11-25T12:51:08;2.60;;;2.27;;
8281;SDS011;25606;42.686;23.136;2022-11-25T12:53:38;2.67;;;2.47;;
8281;SDS011;25606;42.686;23.136;2022-11-25T12:56:10;3.17;;;2.97;;
8281;SDS011;25606;42.686;23.136;2022-11-25T12:58:48;7.33;;;2.90;;
8281;SDS011;25606;42.686;23.136;2022-11-25T13:01:28;3.83;;;2.80;;
8281;SDS011;25606;42.686;23.136;2022-11-25T13:06:56;3.20;;;2.90;;
8281;SDS011;25606;42.686;23.136;2022-11-25T13:09:34;3.00;;;2.70;;
8281;SDS011;25606;42.686;23.136;2022-11-25T13:12:10;2.80;;;2.60;;
8281;SDS011;25606;42.686;23.136;2022-11-25T13:14:53;2.97;;;2.67;;
8281;SDS011;25606;42.686;23.136;2022-11-25T13:17:26;3.80;;;3.30;;
8281;SDS011;25606;42.686;23.136;2022-11-25T13:22:45;5.47;;;2.97;;
8281;SDS011;25606;42.686;23.136;2022-11-25T13:25:35;3.03;;;2.70;;
8281;SDS011;25606;42.686;23.136;2022-11-25T13:28:22;4.03;;;3.00;;
8281;SDS011;25606;42.686;23.136;2022-11-25T13:30:54;4.83;;;3.40;;
8281;SDS011;25606;42.686;23.136;2022-11-25T13:36:03;3.07;;;2.77;;
8281;SDS011;25606;42.686;23.136;2022-11-25T13:38:58;3.73;;;3.43;;
8281;SDS011;25606;42.686;23.136;2022-11-25T13:41:38;5.70;;;3.20;;
8281;SDS011;25606;42.686;23.136;2022-11-25T13:46:55;4.23;;;3.20;;
8281;SDS011;25606;42.686;23.136;2022-11-25T13:49:25;5.13;;;3.13;;
8281;SDS011;25606;42.686;23.136;2022-11-25T13:51:54;4.30;;;3.07;;
8281;SDS011;25606;42.686;23.136;2022-11-25T13:54:34;3.87;;;3.47;;
8281;SDS011;25606;42.686;23.136;2022-11-25T13:57:23;3.90;;;3.50;;
8281;SDS011;25606;42.686;23.136;2022-11-25T13:59:52;4.47;;;3.17;;
8281;SDS011;25606;42.686;23.136;2022-11-25T14:02:34;3.20;;;2.90;;
8281;SDS011;25606;42.686;23.136;2022-11-25T14:07:49;4.23;;;3.43;;
8281;SDS011;25606;42.686;23.136;2022-11-25T14:10:38;3.80;;;3.50;;
8281;SDS011;25606;42.686;23.136;2022-11-25T14:13:16;4.63;;;3.50;;
8281;SDS011;25606;42.686;23.136;2022-11-25T14:15:50;3.60;;;3.30;;
8281;SDS011;25606;42.686;23.136;2022-11-25T14:18:27;3.93;;;3.53;;
8281;SDS011;25606;42.686;23.136;2022-11-25T14:20:58;5.00;;;3.73;;
8281;SDS011;25606;42.686;23.136;2022-11-25T14:23:34;4.07;;;3.67;;
8281;SDS011;25606;42.686;23.136;2022-11-25T14:26:10;4.07;;;3.47;;
8281;SDS011;25606;42.686;23.136;2022-11-25T14:28:40;5.10;;;3.30;;
8281;SDS011;25606;42.686;23.136;2022-11-25T14:31:10;5.97;;;3.47;;
8281;SDS011;25606;42.686;23.136;2022-11-25T14:33:41;3.37;;;2.97;;
8281;SDS011;25606;42.686;23.136;2022-11-25T14:36:11;4.17;;;3.23;;
8281;SDS011;25606;42.686;23.136;2022-11-25T14:38:45;5.27;;;3.83;;
8281;SDS011;25606;42.686;23.136;2022-11-25T14:41:17;3.67;;;3.30;;
8281;SDS011;25606;42.686;23.136;2022-11-25T14:43:46;6.10;;;3.60;;
8281;SDS011;25606;42.686;23.136;2022-11-25T14:46:16;3.93;;;3.57;;
8281;SDS011;25606;42.686;23.136;2022-11-25T14:48:51;3.80;;;3.40;;
8281;SDS011;25606;42.686;23.136;2022-11-25T14:51:20;4.50;;;4.00;;
8281;SDS011;25606;42.686;23.136;2022-11-25T14:53:48;3.93;;;3.53;;
8281;SDS011;25606;42.686;23.136;2022-11-25T14:56:21;4.67;;;3.10;;
8281;SDS011;25606;42.686;23.136;2022-11-25T14:58:50;5.43;;;3.50;;
8281;SDS011;25606;42.686;23.136;2022-11-25T15:01:19;3.60;;;3.20;;
8281;SDS011;25606;42.686;23.136;2022-11-25T15:03:48;3.97;;;3.53;;
8281;SDS011;25606;42.686;23.136;2022-11-25T15:06:16;3.93;;;3.53;;
8281;SDS011;25606;42.686;23.136;2022-11-25T15:08:52;3.83;;;2.97;;
8281;SDS011;25606;42.686;23.136;2022-11-25T15:11:23;4.07;;;3.27;;
8281;SDS011;25606;42.686;23.136;2022-11-25T15:13:57;3.30;;;3.00;;
8281;SDS011;25606;42.686;23.136;2022-11-25T15:16:30;3.10;;;2.80;;
8281;SDS011;25606;42.686;23.136;2022-11-25T15:18:58;4.93;;;3.10;;